Pope Air Force Base
KPOB : now visible

Airfield :











YOU CAN JOIN US ON...

 
LOGIN :

Register | Disclaimer

   EN    FR    IT 

 









Legend :    VFR   Marginal VFR   IFR   Intensive IFR   Very Intensive IFR
Visi :
Ceiling :
>= 8 km
>= 3000ft
5 to 8 km
1000 to 3000 ft
1500m to 5 km
500 to 1000 ft
800 to 1500m
200 to 500 ft
< 800m
< 200 ft
Symbols :   Thunderstorms  Fog  Heavy snow  Heavy precipitations  Wind > 20 kt







- Airport Elevation : 217 ft


KPOB - Pope Air Force Base

CURRENT METAR :
  • 170756Z AUTO 00000KT 10SM CLR 19/18 A2995 RMK AO2 SLP143 T01870179 $

EXPIRED METARs :
  • 170656Z AUTO 00000KT 10SM CLR 20/19 A2995 RMK AO2 SLP143 T01970185 $
  • 170556Z AUTO 00000KT 10SM CLR 20/19 A2996 RMK AO2 SLP146 T01960186 10247 20194 58001 $

TAF TAF KPOB
Valid from the 17 at 01:00 until the 18 at 07:00 UTC


170100Z 1701/1807 05009KT 9999 SCT030 QNH2994INS
BECMG 1709/1710 05004KT 8000 BR BKN008 QNH2992INS
BECMG 1712/1713 05009KT 9999 NSW SCT040 QNH2992INS TX33/1720Z TN19/1711Z
No reported NOTAMs for that airfield.



MET'MAP, your aeronautical weather chart ! - Copyright ORBIFLY December 2007 - Disclaimer

ORBIFLY MET'MAP TEAM :

Programming & Development : Alexandra Zaïnal
Concept & Development : Baudouin d'Aumeries
Co-Development & Prog : Marc-Olivier Méhu
Technical & hardware support : Manuel Goepfert

Contact : metmap@orbifly.com




SOURCES & CREDITS :

   NOAA       Earth
Advisory